CheckWX is a tool to help pilots better visualize weather data.  It is not intended as a substitute for an official pre-flight weather briefing.

07:05:52 UTC

KSDL TAF
Scottsdale Airport
Scottsdale, Arizona, USA
KSDL 210531Z 2106/2206 VRB03KT P6SM SKC FM211600 17006KT P6SM SKC FM212200 25006KT P6SM SKC FM220200 VRB03KT P6SM SKC

Sep-21@
06:00 UTC

Sep-21 @ 06:00 UTC

Sep-21@
16:00 UTC

Sep-21 @ 16:00 UTC

KSDL 210531Z 2106/2206 VRB03KT P6SM SKC
Wind
  • Variable at 3 KTS
Cloud Levels
  • Clear skies

Sep-21@
16:00 UTC

Sep-21 @ 16:00 UTC

Sep-21@
22:00 UTC

Sep-21 @ 22:00 UTC

FM211600 17006KT P6SM SKC

From

From Standard forecast or significant change

Wind
  • 170° at 6 KTS
Cloud Levels
  • Clear skies

Sep-21@
22:00 UTC

Sep-21 @ 22:00 UTC

Sep-22@
02:00 UTC

Sep-22 @ 02:00 UTC

FM212200 25006KT P6SM SKC

From

From Standard forecast or significant change

Wind
  • 250° at 6 KTS
Cloud Levels
  • Clear skies

Sep-22@
02:00 UTC

Sep-22 @ 02:00 UTC

Sep-22@
06:00 UTC

Sep-22 @ 06:00 UTC

FM220200 VRB03KT P6SM SKC

From

From Standard forecast or significant change

Wind
  • Variable at 3 KTS
Cloud Levels
  • Clear skies